Medford, MA

12:04 AM EST on December 11, 2016 (GMT -0500)
Emerson St. Across from Police Station | | Change Station

Elev 12 ft 42.42 °N, 71.11 °W | Updated 37 seconds ago

Clear
Clear
18.2 °F
Feels Like 18 °F
N
0.0
Wind Variable Wind from North
Gusts 1.0 mph

Today
High -- | Low -- °F
--% Chance of Precip.
Yesterday
High -- | Low -- °F
Precip. -- in
Pressure 30.44 in
Visibility 10.0 miles
Clouds Clear
Windchill 18 °F
Dew Point 11 °F
Humidity 72%
Rainfall 0.00 in
Snow Depth Not available.
7:04 AM 4:11 PM
Waxing Gibbous, 89% visible
METAR KBOS 110454Z 30004KT 10SM CLR M06/M14 A3044 RMK AO2 SLP308 T10561139 410171061
Pressure 30.44 in
Visibility 10.0 miles
Clouds Clear
Windchill 18 °F
Dew Point 11 °F
Humidity 72%
Rainfall 0.00 in
Snow Depth Not available.
7:04 AM 4:11 PM
Waxing Gibbous, 89% visible
METAR KBOS 110454Z 30004KT 10SM CLR M06/M14 A3044 RMK AO2 SLP308 T10561139 410171061

10-Day Weather Forecast

Almanac

Astronomy

Dec. 11, 2016 Rise Set
Actual Time
Civil Twilight
Nautical Twilight
Astronomical Twilight
Moon
Length of Visible Light
Length of Day
Tomorrow will be .
, % of the Moon is Illuminated

Today's Extremes

State Highs State Lows

Community

WunderPhotos

Upload Photos

1,956,705 photos uploaded!

WunderBlog® & News

Nearby

Air Quality

  Air Quality AQ Index Pollutant
Not available.

Snow Depth

Station Depth Elevation

Earthquake Activity

City Distance Mag. Time & Date
Minimum magnitude displayed is 2.5.

Coastal Water Temperatures

Place Temperature

Stations

Nearby Weather Stations

Station Location Temp. Windchill Dew Point Humidity Wind Precip. Elev Updated Type
                   

Watches & Warnings

There are currently no watches in effect.